sensor_id;sensor_type;location;lat;lon;timestamp;P1;durP1;ratioP1;P2;durP2;ratioP2
64061;SDS011;50308;47.438;-1.528;2023-05-16T00:01:07;6.20;;;2.20;;
64061;SDS011;50308;47.438;-1.528;2023-05-16T00:03:33;3.60;;;2.10;;
64061;SDS011;50308;47.438;-1.528;2023-05-16T00:05:59;6.53;;;2.85;;
64061;SDS011;50308;47.438;-1.528;2023-05-16T00:08:26;4.85;;;2.17;;
64061;SDS011;50308;47.438;-1.528;2023-05-16T00:10:52;7.68;;;2.30;;
64061;SDS011;50308;47.438;-1.528;2023-05-16T00:13:18;8.82;;;2.83;;
64061;SDS011;50308;47.438;-1.528;2023-05-16T00:15:52;5.93;;;2.20;;
64061;SDS011;50308;47.438;-1.528;2023-05-16T00:18:19;5.95;;;2.00;;
64061;SDS011;50308;47.438;-1.528;2023-05-16T00:20:46;6.50;;;2.42;;
64061;SDS011;50308;47.438;-1.528;2023-05-16T00:23:13;6.28;;;2.38;;
64061;SDS011;50308;47.438;-1.528;2023-05-16T00:25:38;6.40;;;1.92;;
64061;SDS011;50308;47.438;-1.528;2023-05-16T00:28:04;4.35;;;2.13;;
64061;SDS011;50308;47.438;-1.528;2023-05-16T00:30:31;4.43;;;2.00;;
64061;SDS011;50308;47.438;-1.528;2023-05-16T00:32:57;5.13;;;3.20;;
64061;SDS011;50308;47.438;-1.528;2023-05-16T00:35:22;3.25;;;1.95;;
64061;SDS011;50308;47.438;-1.528;2023-05-16T00:37:49;5.25;;;1.88;;
64061;SDS011;50308;47.438;-1.528;2023-05-16T00:40:15;7.13;;;2.63;;
64061;SDS011;50308;47.438;-1.528;2023-05-16T00:42:41;4.35;;;2.10;;
64061;SDS011;50308;47.438;-1.528;2023-05-16T00:45:07;3.20;;;2.05;;
64061;SDS011;50308;47.438;-1.528;2023-05-16T00:47:34;4.28;;;2.30;;
64061;SDS011;50308;47.438;-1.528;2023-05-16T00:50:00;5.97;;;2.38;;
64061;SDS011;50308;47.438;-1.528;2023-05-16T00:52:27;4.55;;;2.30;;
64061;SDS011;50308;47.438;-1.528;2023-05-16T00:54:53;4.07;;;2.20;;
64061;SDS011;50308;47.438;-1.528;2023-05-16T00:57:19;5.60;;;2.35;;
64061;SDS011;50308;47.438;-1.528;2023-05-16T00:59:45;4.25;;;2.15;;
64061;SDS011;50308;47.438;-1.528;2023-05-16T01:02:12;7.32;;;2.58;;
64061;SDS011;50308;47.438;-1.528;2023-05-16T01:04:38;6.50;;;2.20;;
64061;SDS011;50308;47.438;-1.528;2023-05-16T01:07:04;3.45;;;2.35;;
64061;SDS011;50308;47.438;-1.528;2023-05-16T01:09:30;6.25;;;2.80;;
64061;SDS011;50308;47.438;-1.528;2023-05-16T01:28:14;5.25;;;2.17;;
64061;SDS011;50308;47.438;-1.528;2023-05-16T01:30:41;5.10;;;2.08;;
64061;SDS011;50308;47.438;-1.528;2023-05-16T01:33:07;5.95;;;2.60;;
64061;SDS011;50308;47.438;-1.528;2023-05-16T01:35:34;5.47;;;2.50;;
64061;SDS011;50308;47.438;-1.528;2023-05-16T01:38:20;4.22;;;2.55;;
64061;SDS011;50308;47.438;-1.528;2023-05-16T01:40:54;4.53;;;2.05;;
64061;SDS011;50308;47.438;-1.528;2023-05-16T01:43:48;5.45;;;2.28;;
64061;SDS011;50308;47.438;-1.528;2023-05-16T01:46:20;4.80;;;2.20;;
64061;SDS011;50308;47.438;-1.528;2023-05-16T01:48:56;6.57;;;2.38;;
64061;SDS011;50308;47.438;-1.528;2023-05-16T01:51:30;4.15;;;2.22;;
64061;SDS011;50308;47.438;-1.528;2023-05-16T01:54:03;5.72;;;2.60;;
64061;SDS011;50308;47.438;-1.528;2023-05-16T01:56:31;5.25;;;2.60;;
64061;SDS011;50308;47.438;-1.528;2023-05-16T01:58:58;4.22;;;2.10;;
64061;SDS011;50308;47.438;-1.528;2023-05-16T02:01:26;5.88;;;2.88;;
64061;SDS011;50308;47.438;-1.528;2023-05-16T02:03:52;4.43;;;2.17;;
64061;SDS011;50308;47.438;-1.528;2023-05-16T02:06:18;3.42;;;2.22;;
64061;SDS011;50308;47.438;-1.528;2023-05-16T02:08:44;3.70;;;2.05;;
64061;SDS011;50308;47.438;-1.528;2023-05-16T02:11:10;3.72;;;2.30;;
64061;SDS011;50308;47.438;-1.528;2023-05-16T02:13:35;5.22;;;2.75;;
64061;SDS011;50308;47.438;-1.528;2023-05-16T02:16:01;3.90;;;2.10;;
64061;SDS011;50308;47.438;-1.528;2023-05-16T02:18:26;4.63;;;2.10;;
64061;SDS011;50308;47.438;-1.528;2023-05-16T02:20:52;9.05;;;2.40;;
64061;SDS011;50308;47.438;-1.528;2023-05-16T02:23:18;6.32;;;2.40;;
64061;SDS011;50308;47.438;-1.528;2023-05-16T02:25:44;5.10;;;1.98;;
64061;SDS011;50308;47.438;-1.528;2023-05-16T02:28:10;4.93;;;2.22;;
64061;SDS011;50308;47.438;-1.528;2023-05-16T02:30:35;5.13;;;2.47;;
64061;SDS011;50308;47.438;-1.528;2023-05-16T02:33:01;6.57;;;2.20;;
64061;SDS011;50308;47.438;-1.528;2023-05-16T02:35:27;4.45;;;2.00;;
64061;SDS011;50308;47.438;-1.528;2023-05-16T02:37:52;4.30;;;2.10;;
64061;SDS011;50308;47.438;-1.528;2023-05-16T02:40:19;5.00;;;2.28;;
64061;SDS011;50308;47.438;-1.528;2023-05-16T02:42:45;4.43;;;2.50;;
64061;SDS011;50308;47.438;-1.528;2023-05-16T02:45:10;3.42;;;2.05;;
64061;SDS011;50308;47.438;-1.528;2023-05-16T02:47:36;5.35;;;2.05;;
64061;SDS011;50308;47.438;-1.528;2023-05-16T02:50:02;3.95;;;2.35;;
64061;SDS011;50308;47.438;-1.528;2023-05-16T02:52:28;4.25;;;2.17;;
64061;SDS011;50308;47.438;-1.528;2023-05-16T02:54:53;4.10;;;2.30;;
64061;SDS011;50308;47.438;-1.528;2023-05-16T02:57:19;7.65;;;2.50;;
64061;SDS011;50308;47.438;-1.528;2023-05-16T02:59:45;11.07;;;3.05;;
64061;SDS011;50308;47.438;-1.528;2023-05-16T03:02:11;4.65;;;2.20;;
64061;SDS011;50308;47.438;-1.528;2023-05-16T03:04:36;3.35;;;2.40;;
64061;SDS011;50308;47.438;-1.528;2023-05-16T03:07:02;5.88;;;2.30;;
64061;SDS011;50308;47.438;-1.528;2023-05-16T03:09:28;6.30;;;2.33;;
64061;SDS011;50308;47.438;-1.528;2023-05-16T03:11:53;4.82;;;1.85;;
64061;SDS011;50308;47.438;-1.528;2023-05-16T03:14:19;4.32;;;2.20;;
64061;SDS011;50308;47.438;-1.528;2023-05-16T03:16:45;5.25;;;3.28;;
64061;SDS011;50308;47.438;-1.528;2023-05-16T03:19:11;2.65;;;1.77;;
64061;SDS011;50308;47.438;-1.528;2023-05-16T03:21:38;4.95;;;2.17;;
64061;SDS011;50308;47.438;-1.528;2023-05-16T03:24:03;5.32;;;2.50;;
64061;SDS011;50308;47.438;-1.528;2023-05-16T03:26:29;6.15;;;3.58;;
64061;SDS011;50308;47.438;-1.528;2023-05-16T03:28:55;2.70;;;2.03;;
64061;SDS011;50308;47.438;-1.528;2023-05-16T03:31:21;3.72;;;1.80;;
64061;SDS011;50308;47.438;-1.528;2023-05-16T03:33:47;3.03;;;1.67;;
64061;SDS011;50308;47.438;-1.528;2023-05-16T03:36:12;5.03;;;2.30;;
64061;SDS011;50308;47.438;-1.528;2023-05-16T03:38:38;4.60;;;2.35;;
64061;SDS011;50308;47.438;-1.528;2023-05-16T03:41:04;4.72;;;2.80;;
64061;SDS011;50308;47.438;-1.528;2023-05-16T03:43:29;4.55;;;3.30;;
64061;SDS011;50308;47.438;-1.528;2023-05-16T03:45:55;4.53;;;2.63;;
64061;SDS011;50308;47.438;-1.528;2023-05-16T03:48:21;4.95;;;2.05;;
64061;SDS011;50308;47.438;-1.528;2023-05-16T03:50:47;4.10;;;1.83;;
64061;SDS011;50308;47.438;-1.528;2023-05-16T03:53:12;4.28;;;2.22;;
64061;SDS011;50308;47.438;-1.528;2023-05-16T03:55:38;3.67;;;2.60;;
64061;SDS011;50308;47.438;-1.528;2023-05-16T03:58:03;7.38;;;2.75;;
64061;SDS011;50308;47.438;-1.528;2023-05-16T04:00:29;3.90;;;2.22;;
64061;SDS011;50308;47.438;-1.528;2023-05-16T04:02:55;5.00;;;2.20;;
64061;SDS011;50308;47.438;-1.528;2023-05-16T04:05:21;3.63;;;2.20;;
64061;SDS011;50308;47.438;-1.528;2023-05-16T04:07:46;3.72;;;2.20;;
64061;SDS011;50308;47.438;-1.528;2023-05-16T04:10:12;4.25;;;2.30;;
64061;SDS011;50308;47.438;-1.528;2023-05-16T04:12:38;3.13;;;2.00;;
64061;SDS011;50308;47.438;-1.528;2023-05-16T04:15:04;5.40;;;2.38;;
64061;SDS011;50308;47.438;-1.528;2023-05-16T04:17:30;6.32;;;3.08;;
64061;SDS011;50308;47.438;-1.528;2023-05-16T04:19:57;2.65;;;2.13;;
64061;SDS011;50308;47.438;-1.528;2023-05-16T04:22:23;10.05;;;2.47;;
64061;SDS011;50308;47.438;-1.528;2023-05-16T04:24:48;3.65;;;2.42;;
64061;SDS011;50308;47.438;-1.528;2023-05-16T04:27:14;4.53;;;2.20;;
64061;SDS011;50308;47.438;-1.528;2023-05-16T04:29:41;4.40;;;2.38;;
64061;SDS011;50308;47.438;-1.528;2023-05-16T04:32:06;5.15;;;2.05;;
64061;SDS011;50308;47.438;-1.528;2023-05-16T04:34:33;9.02;;;2.80;;
64061;SDS011;50308;47.438;-1.528;2023-05-16T04:37:01;3.95;;;2.50;;
64061;SDS011;50308;47.438;-1.528;2023-05-16T04:39:31;5.37;;;2.57;;
64061;SDS011;50308;47.438;-1.528;2023-05-16T04:42:00;4.57;;;2.30;;
64061;SDS011;50308;47.438;-1.528;2023-05-16T04:44:27;4.68;;;2.08;;
64061;SDS011;50308;47.438;-1.528;2023-05-16T04:46:53;5.03;;;2.17;;
64061;SDS011;50308;47.438;-1.528;2023-05-16T04:49:19;4.60;;;2.15;;
64061;SDS011;50308;47.438;-1.528;2023-05-16T04:51:46;5.15;;;2.30;;
64061;SDS011;50308;47.438;-1.528;2023-05-16T04:54:12;3.42;;;1.98;;
64061;SDS011;50308;47.438;-1.528;2023-05-16T04:56:38;3.50;;;1.77;;
64061;SDS011;50308;47.438;-1.528;2023-05-16T04:59:03;3.47;;;1.83;;
64061;SDS011;50308;47.438;-1.528;2023-05-16T05:01:29;2.92;;;1.90;;
64061;SDS011;50308;47.438;-1.528;2023-05-16T05:03:55;5.85;;;2.20;;
64061;SDS011;50308;47.438;-1.528;2023-05-16T05:06:21;3.28;;;2.03;;
64061;SDS011;50308;47.438;-1.528;2023-05-16T05:08:47;5.82;;;2.53;;
64061;SDS011;50308;47.438;-1.528;2023-05-16T05:11:13;3.40;;;2.28;;
64061;SDS011;50308;47.438;-1.528;2023-05-16T05:13:39;5.85;;;2.38;;
64061;SDS011;50308;47.438;-1.528;2023-05-16T05:16:05;5.30;;;2.50;;
64061;SDS011;50308;47.438;-1.528;2023-05-16T05:18:31;5.28;;;2.70;;
64061;SDS011;50308;47.438;-1.528;2023-05-16T05:20:57;4.43;;;2.05;;
64061;SDS011;50308;47.438;-1.528;2023-05-16T05:23:23;3.80;;;1.80;;
64061;SDS011;50308;47.438;-1.528;2023-05-16T05:25:48;5.57;;;2.60;;
64061;SDS011;50308;47.438;-1.528;2023-05-16T05:28:14;5.03;;;2.22;;
64061;SDS011;50308;47.438;-1.528;2023-05-16T05:30:40;2.65;;;1.98;;
64061;SDS011;50308;47.438;-1.528;2023-05-16T05:33:06;4.72;;;1.95;;
64061;SDS011;50308;47.438;-1.528;2023-05-16T05:35:32;4.75;;;2.25;;
64061;SDS011;50308;47.438;-1.528;2023-05-16T05:37:58;5.28;;;2.28;;
64061;SDS011;50308;47.438;-1.528;2023-05-16T05:40:23;4.07;;;2.70;;
64061;SDS011;50308;47.438;-1.528;2023-05-16T05:42:49;3.42;;;2.30;;
64061;SDS011;50308;47.438;-1.528;2023-05-16T05:45:15;4.63;;;2.45;;
64061;SDS011;50308;47.438;-1.528;2023-05-16T05:47:41;5.05;;;1.80;;
64061;SDS011;50308;47.438;-1.528;2023-05-16T05:50:07;3.35;;;1.85;;
64061;SDS011;50308;47.438;-1.528;2023-05-16T05:52:36;2.42;;;1.80;;
64061;SDS011;50308;47.438;-1.528;2023-05-16T05:55:02;4.43;;;2.00;;
64061;SDS011;50308;47.438;-1.528;2023-05-16T05:57:28;4.85;;;1.90;;
64061;SDS011;50308;47.438;-1.528;2023-05-16T05:59:54;6.05;;;2.60;;
64061;SDS011;50308;47.438;-1.528;2023-05-16T06:02:20;5.65;;;3.05;;
64061;SDS011;50308;47.438;-1.528;2023-05-16T06:04:46;5.72;;;2.10;;
64061;SDS011;50308;47.438;-1.528;2023-05-16T06:07:11;5.70;;;2.50;;
64061;SDS011;50308;47.438;-1.528;2023-05-16T06:09:39;7.35;;;2.47;;
64061;SDS011;50308;47.438;-1.528;2023-05-16T06:12:06;7.20;;;2.42;;
64061;SDS011;50308;47.438;-1.528;2023-05-16T06:14:32;6.55;;;2.20;;
64061;SDS011;50308;47.438;-1.528;2023-05-16T06:16:58;7.18;;;2.80;;
64061;SDS011;50308;47.438;-1.528;2023-05-16T06:19:24;4.70;;;2.95;;
64061;SDS011;50308;47.438;-1.528;2023-05-16T06:21:49;8.93;;;2.42;;
64061;SDS011;50308;47.438;-1.528;2023-05-16T06:24:15;3.97;;;1.90;;
64061;SDS011;50308;47.438;-1.528;2023-05-16T06:26:41;3.80;;;2.70;;
64061;SDS011;50308;47.438;-1.528;2023-05-16T06:29:06;5.72;;;2.42;;
64061;SDS011;50308;47.438;-1.528;2023-05-16T06:31:32;5.70;;;2.40;;
64061;SDS011;50308;47.438;-1.528;2023-05-16T06:33:58;6.18;;;2.45;;
64061;SDS011;50308;47.438;-1.528;2023-05-16T06:36:23;7.10;;;2.30;;
64061;SDS011;50308;47.438;-1.528;2023-05-16T06:38:49;7.28;;;2.42;;
64061;SDS011;50308;47.438;-1.528;2023-05-16T06:41:15;8.18;;;2.30;;
64061;SDS011;50308;47.438;-1.528;2023-05-16T06:43:40;7.45;;;2.45;;
64061;SDS011;50308;47.438;-1.528;2023-05-16T06:46:06;6.50;;;2.40;;
64061;SDS011;50308;47.438;-1.528;2023-05-16T06:48:32;5.93;;;2.50;;
64061;SDS011;50308;47.438;-1.528;2023-05-16T06:50:57;7.43;;;2.22;;
64061;SDS011;50308;47.438;-1.528;2023-05-16T06:53:23;4.75;;;2.75;;
64061;SDS011;50308;47.438;-1.528;2023-05-16T06:55:50;5.00;;;2.47;;
64061;SDS011;50308;47.438;-1.528;2023-05-16T06:58:15;9.70;;;3.40;;
64061;SDS011;50308;47.438;-1.528;2023-05-16T07:00:41;6.05;;;2.45;;
64061;SDS011;50308;47.438;-1.528;2023-05-16T07:03:08;6.20;;;3.40;;
64061;SDS011;50308;47.438;-1.528;2023-05-16T07:05:33;9.15;;;3.47;;
64061;SDS011;50308;47.438;-1.528;2023-05-16T07:07:59;6.97;;;2.70;;
64061;SDS011;50308;47.438;-1.528;2023-05-16T07:10:25;5.47;;;2.88;;
64061;SDS011;50308;47.438;-1.528;2023-05-16T07:12:51;4.65;;;2.70;;
64061;SDS011;50308;47.438;-1.528;2023-05-16T07:15:17;6.57;;;2.50;;
64061;SDS011;50308;47.438;-1.528;2023-05-16T07:17:42;10.70;;;3.67;;
64061;SDS011;50308;47.438;-1.528;2023-05-16T07:20:08;6.65;;;2.72;;
64061;SDS011;50308;47.438;-1.528;2023-05-16T07:22:37;7.05;;;3.38;;
64061;SDS011;50308;47.438;-1.528;2023-05-16T07:25:03;8.07;;;3.95;;
64061;SDS011;50308;47.438;-1.528;2023-05-16T07:27:29;5.55;;;3.30;;
64061;SDS011;50308;47.438;-1.528;2023-05-16T07:29:56;5.25;;;2.70;;
64061;SDS011;50308;47.438;-1.528;2023-05-16T07:32:22;6.10;;;2.65;;
64061;SDS011;50308;47.438;-1.528;2023-05-16T07:34:47;6.95;;;3.03;;
64061;SDS011;50308;47.438;-1.528;2023-05-16T07:37:13;7.25;;;2.70;;
64061;SDS011;50308;47.438;-1.528;2023-05-16T07:39:40;7.15;;;3.00;;
64061;SDS011;50308;47.438;-1.528;2023-05-16T07:42:06;6.97;;;2.60;;
64061;SDS011;50308;47.438;-1.528;2023-05-16T07:44:33;10.32;;;2.90;;
64061;SDS011;50308;47.438;-1.528;2023-05-16T07:46:59;9.35;;;2.67;;
64061;SDS011;50308;47.438;-1.528;2023-05-16T07:49:24;7.30;;;3.70;;
64061;SDS011;50308;47.438;-1.528;2023-05-16T07:51:50;5.15;;;2.67;;
64061;SDS011;50308;47.438;-1.528;2023-05-16T07:54:16;3.72;;;2.33;;
64061;SDS011;50308;47.438;-1.528;2023-05-16T07:56:43;4.85;;;2.25;;
64061;SDS011;50308;47.438;-1.528;2023-05-16T07:59:09;5.60;;;3.10;;
64061;SDS011;50308;47.438;-1.528;2023-05-16T08:01:35;7.78;;;2.50;;
64061;SDS011;50308;47.438;-1.528;2023-05-16T08:04:01;6.20;;;2.58;;
64061;SDS011;50308;47.438;-1.528;2023-05-16T08:06:27;9.45;;;2.55;;
64061;SDS011;50308;47.438;-1.528;2023-05-16T08:08:53;6.97;;;2.42;;
64061;SDS011;50308;47.438;-1.528;2023-05-16T08:11:19;5.68;;;2.35;;
64061;SDS011;50308;47.438;-1.528;2023-05-16T08:13:46;6.57;;;2.47;;
64061;SDS011;50308;47.438;-1.528;2023-05-16T08:16:12;8.80;;;2.28;;
64061;SDS011;50308;47.438;-1.528;2023-05-16T08:18:38;4.53;;;2.08;;
64061;SDS011;50308;47.438;-1.528;2023-05-16T08:21:04;7.20;;;3.38;;
64061;SDS011;50308;47.438;-1.528;2023-05-16T08:23:29;3.22;;;2.20;;
64061;SDS011;50308;47.438;-1.528;2023-05-16T08:25:55;5.10;;;2.55;;
64061;SDS011;50308;47.438;-1.528;2023-05-16T08:28:22;5.38;;;1.92;;
64061;SDS011;50308;47.438;-1.528;2023-05-16T08:30:48;6.50;;;1.90;;
64061;SDS011;50308;47.438;-1.528;2023-05-16T08:33:14;3.55;;;1.60;;
64061;SDS011;50308;47.438;-1.528;2023-05-16T08:35:43;5.50;;;2.33;;
64061;SDS011;50308;47.438;-1.528;2023-05-16T08:38:09;6.22;;;1.95;;
64061;SDS011;50308;47.438;-1.528;2023-05-16T08:40:34;3.63;;;1.90;;
64061;SDS011;50308;47.438;-1.528;2023-05-16T08:43:00;5.32;;;1.90;;
64061;SDS011;50308;47.438;-1.528;2023-05-16T08:45:26;3.05;;;1.70;;
64061;SDS011;50308;47.438;-1.528;2023-05-16T08:47:54;3.40;;;1.65;;
64061;SDS011;50308;47.438;-1.528;2023-05-16T08:50:23;5.53;;;1.98;;
64061;SDS011;50308;47.438;-1.528;2023-05-16T08:52:50;4.75;;;2.10;;
64061;SDS011;50308;47.438;-1.528;2023-05-16T08:55:20;3.78;;;2.20;;
64061;SDS011;50308;47.438;-1.528;2023-05-16T08:57:49;4.90;;;2.17;;
64061;SDS011;50308;47.438;-1.528;2023-05-16T09:00:16;5.65;;;2.20;;
64061;SDS011;50308;47.438;-1.528;2023-05-16T09:02:43;4.10;;;2.25;;
64061;SDS011;50308;47.438;-1.528;2023-05-16T09:05:13;7.43;;;2.40;;
64061;SDS011;50308;47.438;-1.528;2023-05-16T09:07:40;5.38;;;2.58;;
64061;SDS011;50308;47.438;-1.528;2023-05-16T09:10:07;5.45;;;2.42;;
64061;SDS011;50308;47.438;-1.528;2023-05-16T09:12:33;6.32;;;2.05;;
64061;SDS011;50308;47.438;-1.528;2023-05-16T09:15:03;6.85;;;2.13;;
64061;SDS011;50308;47.438;-1.528;2023-05-16T09:17:43;5.70;;;2.50;;
64061;SDS011;50308;47.438;-1.528;2023-05-16T09:22:40;7.15;;;2.53;;
64061;SDS011;50308;47.438;-1.528;2023-05-16T09:25:22;5.22;;;2.47;;
64061;SDS011;50308;47.438;-1.528;2023-05-16T09:27:55;5.43;;;2.80;;
64061;SDS011;50308;47.438;-1.528;2023-05-16T09:30:26;9.02;;;4.07;;
64061;SDS011;50308;47.438;-1.528;2023-05-16T09:32:54;5.10;;;2.08;;
64061;SDS011;50308;47.438;-1.528;2023-05-16T09:35:20;10.40;;;2.90;;
64061;SDS011;50308;47.438;-1.528;2023-05-16T09:37:48;14.35;;;3.70;;
64061;SDS011;50308;47.438;-1.528;2023-05-16T09:40:15;9.80;;;2.92;;
64061;SDS011;50308;47.438;-1.528;2023-05-16T09:42:45;7.45;;;2.75;;
64061;SDS011;50308;47.438;-1.528;2023-05-16T09:45:11;13.80;;;3.40;;
64061;SDS011;50308;47.438;-1.528;2023-05-16T09:47:38;5.85;;;2.60;;
64061;SDS011;50308;47.438;-1.528;2023-05-16T09:50:10;7.55;;;2.90;;
64061;SDS011;50308;47.438;-1.528;2023-05-16T09:52:39;5.45;;;2.60;;
64061;SDS011;50308;47.438;-1.528;2023-05-16T09:55:08;6.28;;;2.70;;
64061;SDS011;50308;47.438;-1.528;2023-05-16T09:57:37;5.93;;;3.15;;
64061;SDS011;50308;47.438;-1.528;2023-05-16T10:00:10;8.55;;;3.17;;
64061;SDS011;50308;47.438;-1.528;2023-05-16T10:02:37;6.80;;;2.45;;
64061;SDS011;50308;47.438;-1.528;2023-05-16T10:05:03;5.43;;;2.30;;
64061;SDS011;50308;47.438;-1.528;2023-05-16T10:07:30;4.20;;;2.25;;
64061;SDS011;50308;47.438;-1.528;2023-05-16T10:10:00;4.18;;;2.45;;
64061;SDS011;50308;47.438;-1.528;2023-05-16T10:12:30;4.03;;;2.40;;
64061;SDS011;50308;47.438;-1.528;2023-05-16T10:14:59;4.80;;;2.25;;
64061;SDS011;50308;47.438;-1.528;2023-05-16T10:17:26;6.35;;;1.83;;
64061;SDS011;50308;47.438;-1.528;2023-05-16T10:19:56;4.78;;;1.90;;
64061;SDS011;50308;47.438;-1.528;2023-05-16T10:22:25;5.20;;;2.22;;
64061;SDS011;50308;47.438;-1.528;2023-05-16T10:27:40;10.50;;;2.60;;
64061;SDS011;50308;47.438;-1.528;2023-05-16T10:30:06;6.78;;;2.70;;
64061;SDS011;50308;47.438;-1.528;2023-05-16T10:32:34;7.07;;;2.72;;
64061;SDS011;50308;47.438;-1.528;2023-05-16T10:35:01;4.95;;;2.50;;
64061;SDS011;50308;47.438;-1.528;2023-05-16T10:37:30;9.65;;;2.50;;
64061;SDS011;50308;47.438;-1.528;2023-05-16T10:40:00;4.03;;;2.15;;
64061;SDS011;50308;47.438;-1.528;2023-05-16T10:42:26;5.00;;;2.30;;
64061;SDS011;50308;47.438;-1.528;2023-05-16T10:44:55;4.20;;;2.40;;
64061;SDS011;50308;47.438;-1.528;2023-05-16T10:50:40;6.38;;;2.60;;
64061;SDS011;50308;47.438;-1.528;2023-05-16T10:53:18;4.80;;;2.10;;
64061;SDS011;50308;47.438;-1.528;2023-05-16T10:55:49;5.30;;;2.15;;
64061;SDS011;50308;47.438;-1.528;2023-05-16T10:58:22;11.77;;;2.78;;
64061;SDS011;50308;47.438;-1.528;2023-05-16T11:03:58;4.45;;;1.85;;
64061;SDS011;50308;47.438;-1.528;2023-05-16T11:09:06;5.30;;;2.03;;
64061;SDS011;50308;47.438;-1.528;2023-05-16T11:11:44;4.40;;;1.90;;
64061;SDS011;50308;47.438;-1.528;2023-05-16T11:17:05;6.35;;;2.42;;
64061;SDS011;50308;47.438;-1.528;2023-05-16T11:22:10;5.55;;;2.08;;
64061;SDS011;50308;47.438;-1.528;2023-05-16T11:24:58;5.70;;;2.33;;
64061;SDS011;50308;47.438;-1.528;2023-05-16T11:27:26;3.60;;;1.98;;
64061;SDS011;50308;47.438;-1.528;2023-05-16T11:29:53;3.83;;;2.30;;
64061;SDS011;50308;47.438;-1.528;2023-05-16T11:32:22;3.58;;;2.35;;
64061;SDS011;50308;47.438;-1.528;2023-05-16T11:34:49;4.40;;;2.20;;
64061;SDS011;50308;47.438;-1.528;2023-05-16T11:37:16;4.72;;;2.15;;
64061;SDS011;50308;47.438;-1.528;2023-05-16T11:39:43;9.38;;;2.90;;
64061;SDS011;50308;47.438;-1.528;2023-05-16T11:42:09;6.03;;;2.50;;
64061;SDS011;50308;47.438;-1.528;2023-05-16T11:44:35;6.25;;;2.35;;
64061;SDS011;50308;47.438;-1.528;2023-05-16T11:47:01;4.97;;;2.03;;
64061;SDS011;50308;47.438;-1.528;2023-05-16T11:49:28;6.90;;;2.22;;
64061;SDS011;50308;47.438;-1.528;2023-05-16T11:51:54;5.68;;;3.35;;
64061;SDS011;50308;47.438;-1.528;2023-05-16T11:54:21;5.05;;;2.40;;
64061;SDS011;50308;47.438;-1.528;2023-05-16T11:56:48;4.50;;;2.28;;
64061;SDS011;50308;47.438;-1.528;2023-05-16T11:59:15;10.02;;;2.17;;
64061;SDS011;50308;47.438;-1.528;2023-05-16T12:01:41;4.68;;;2.42;;
64061;SDS011;50308;47.438;-1.528;2023-05-16T12:04:07;7.25;;;2.35;;
64061;SDS011;50308;47.438;-1.528;2023-05-16T12:06:34;5.90;;;2.63;;
64061;SDS011;50308;47.438;-1.528;2023-05-16T12:09:01;6.05;;;2.40;;
64061;SDS011;50308;47.438;-1.528;2023-05-16T12:11:35;4.82;;;2.30;;
64061;SDS011;50308;47.438;-1.528;2023-05-16T12:16:31;5.57;;;2.40;;
64061;SDS011;50308;47.438;-1.528;2023-05-16T12:18:57;4.70;;;2.00;;
64061;SDS011;50308;47.438;-1.528;2023-05-16T12:21:25;7.43;;;2.72;;
64061;SDS011;50308;47.438;-1.528;2023-05-16T12:23:54;5.72;;;2.42;;
64061;SDS011;50308;47.438;-1.528;2023-05-16T12:26:23;4.90;;;2.22;;
64061;SDS011;50308;47.438;-1.528;2023-05-16T12:28:57;4.25;;;2.28;;
64061;SDS011;50308;47.438;-1.528;2023-05-16T12:31:29;6.72;;;2.28;;
64061;SDS011;50308;47.438;-1.528;2023-05-16T12:33:56;4.90;;;2.10;;
64061;SDS011;50308;47.438;-1.528;2023-05-16T12:36:23;7.28;;;2.33;;
64061;SDS011;50308;47.438;-1.528;2023-05-16T12:38:50;5.68;;;2.35;;
64061;SDS011;50308;47.438;-1.528;2023-05-16T12:41:23;3.67;;;1.92;;
64061;SDS011;50308;47.438;-1.528;2023-05-16T12:43:48;2.70;;;2.03;;
64061;SDS011;50308;47.438;-1.528;2023-05-16T12:46:14;3.35;;;2.20;;
64061;SDS011;50308;47.438;-1.528;2023-05-16T12:48:40;3.85;;;2.10;;
64061;SDS011;50308;47.438;-1.528;2023-05-16T12:53:41;5.60;;;2.40;;
64061;SDS011;50308;47.438;-1.528;2023-05-16T12:56:08;4.90;;;2.50;;
64061;SDS011;50308;47.438;-1.528;2023-05-16T12:58:34;5.45;;;2.50;;
64061;SDS011;50308;47.438;-1.528;2023-05-16T13:01:00;9.65;;;3.20;;
64061;SDS011;50308;47.438;-1.528;2023-05-16T13:03:25;6.78;;;2.72;;
64061;SDS011;50308;47.438;-1.528;2023-05-16T13:05:51;5.03;;;2.50;;
64061;SDS011;50308;47.438;-1.528;2023-05-16T13:08:17;4.30;;;2.25;;
64061;SDS011;50308;47.438;-1.528;2023-05-16T13:10:42;7.13;;;2.78;;
64061;SDS011;50308;47.438;-1.528;2023-05-16T13:13:08;5.32;;;2.15;;
64061;SDS011;50308;47.438;-1.528;2023-05-16T13:15:34;4.40;;;2.47;;
64061;SDS011;50308;47.438;-1.528;2023-05-16T13:18:00;5.22;;;2.20;;
64061;SDS011;50308;47.438;-1.528;2023-05-16T13:20:26;5.22;;;2.63;;
64061;SDS011;50308;47.438;-1.528;2023-05-16T13:22:53;6.43;;;2.65;;
64061;SDS011;50308;47.438;-1.528;2023-05-16T13:25:19;7.13;;;2.65;;
64061;SDS011;50308;47.438;-1.528;2023-05-16T13:27:45;3.67;;;2.30;;
64061;SDS011;50308;47.438;-1.528;2023-05-16T13:30:13;4.05;;;2.08;;
64061;SDS011;50308;47.438;-1.528;2023-05-16T13:32:39;4.35;;;3.10;;
64061;SDS011;50308;47.438;-1.528;2023-05-16T13:35:05;6.55;;;2.47;;
64061;SDS011;50308;47.438;-1.528;2023-05-16T13:37:32;4.57;;;2.50;;
64061;SDS011;50308;47.438;-1.528;2023-05-16T13:39:57;4.03;;;2.40;;
64061;SDS011;50308;47.438;-1.528;2023-05-16T13:42:23;5.65;;;2.70;;
64061;SDS011;50308;47.438;-1.528;2023-05-16T13:44:49;6.25;;;2.78;;
64061;SDS011;50308;47.438;-1.528;2023-05-16T13:47:16;6.50;;;2.60;;
64061;SDS011;50308;47.438;-1.528;2023-05-16T13:49:41;5.50;;;2.95;;
64061;SDS011;50308;47.438;-1.528;2023-05-16T13:52:07;6.40;;;2.78;;
64061;SDS011;50308;47.438;-1.528;2023-05-16T13:54:33;4.32;;;2.58;;
64061;SDS011;50308;47.438;-1.528;2023-05-16T13:56:59;4.13;;;2.58;;
64061;SDS011;50308;47.438;-1.528;2023-05-16T13:59:26;3.83;;;2.63;;
64061;SDS011;50308;47.438;-1.528;2023-05-16T14:01:51;3.97;;;2.50;;
64061;SDS011;50308;47.438;-1.528;2023-05-16T14:04:17;6.82;;;2.67;;
64061;SDS011;50308;47.438;-1.528;2023-05-16T14:06:43;6.38;;;2.88;;
64061;SDS011;50308;47.438;-1.528;2023-05-16T14:09:08;7.75;;;2.75;;
64061;SDS011;50308;47.438;-1.528;2023-05-16T14:11:34;6.43;;;3.42;;
64061;SDS011;50308;47.438;-1.528;2023-05-16T14:14:00;5.30;;;2.45;;
64061;SDS011;50308;47.438;-1.528;2023-05-16T14:16:26;3.88;;;2.70;;
64061;SDS011;50308;47.438;-1.528;2023-05-16T14:18:51;6.20;;;2.70;;
64061;SDS011;50308;47.438;-1.528;2023-05-16T14:21:17;11.45;;;3.03;;
64061;SDS011;50308;47.438;-1.528;2023-05-16T14:23:43;5.13;;;3.30;;
64061;SDS011;50308;47.438;-1.528;2023-05-16T14:40:44;12.18;;;4.75;;
64061;SDS011;50308;47.438;-1.528;2023-05-16T14:43:10;12.48;;;6.55;;
64061;SDS011;50308;47.438;-1.528;2023-05-16T14:45:36;11.13;;;6.35;;
64061;SDS011;50308;47.438;-1.528;2023-05-16T14:48:03;10.82;;;5.57;;
64061;SDS011;50308;47.438;-1.528;2023-05-16T14:50:30;12.00;;;6.00;;
64061;SDS011;50308;47.438;-1.528;2023-05-16T14:52:56;10.32;;;5.13;;
64061;SDS011;50308;47.438;-1.528;2023-05-16T14:55:21;10.93;;;6.05;;
64061;SDS011;50308;47.438;-1.528;2023-05-16T14:57:47;8.45;;;4.82;;
64061;SDS011;50308;47.438;-1.528;2023-05-16T15:00:14;10.60;;;4.43;;
64061;SDS011;50308;47.438;-1.528;2023-05-16T15:02:41;8.80;;;3.95;;
64061;SDS011;50308;47.438;-1.528;2023-05-16T15:05:07;7.45;;;4.53;;
64061;SDS011;50308;47.438;-1.528;2023-05-16T15:07:33;10.63;;;4.72;;
64061;SDS011;50308;47.438;-1.528;2023-05-16T15:09:58;10.82;;;4.13;;
64061;SDS011;50308;47.438;-1.528;2023-05-16T15:12:25;6.60;;;4.55;;
64061;SDS011;50308;47.438;-1.528;2023-05-16T15:14:50;6.88;;;4.10;;
64061;SDS011;50308;47.438;-1.528;2023-05-16T15:17:16;6.68;;;3.40;;
64061;SDS011;50308;47.438;-1.528;2023-05-16T15:19:42;8.55;;;3.90;;
64061;SDS011;50308;47.438;-1.528;2023-05-16T15:22:07;13.40;;;4.43;;
64061;SDS011;50308;47.438;-1.528;2023-05-16T15:24:34;6.10;;;4.07;;
64061;SDS011;50308;47.438;-1.528;2023-05-16T15:27:00;10.00;;;4.10;;